Time;durP1;ratioP1;P1;durP2;ratioP2;P2;SDS_P1;SDS_P2;PMS_P1;PMS_P2;Temp;Humidity;BMP_temperature;BMP_pressure;BME280_temperature;BME280_humidity;BME280_pressure;Samples;Min_cycle;Max_cycle;Signal;HPM_P1;HPM_P2
2022/08/21 00:00:48;;;;;;;10.00;5.50;;;;;;;19.79;100.00;99525.35;105156;1271;74996;-79
2022/08/21 00:03:36;;;;;;;10.10;6.10;;;;;;;19.76;100.00;99523.33;105200;1271;69578;-80
2022/08/21 00:06:24;;;;;;;10.80;5.40;;;;;;;19.76;100.00;99520.63;105100;1271;71567;-79
2022/08/21 00:09:12;;;;;;;10.00;5.40;;;;;;;19.74;100.00;99519.04;105160;1271;60244;-79
2022/08/21 00:12:00;;;;;;;14.60;5.80;;;;;;;19.76;100.00;99519.40;105226;1271;61047;-80
2022/08/21 00:14:51;;;;;;;9.20;5.40;;;;;;;19.77;100.00;99520.38;105246;1271;74858;-80
2022/08/21 00:17:43;;;;;;;9.20;5.10;;;;;;;19.76;100.00;99525.11;105155;1271;66813;-78
2022/08/21 00:20:33;;;;;;;9.20;5.50;;;;;;;19.78;100.00;99520.05;105133;1271;71590;-79
2022/08/21 00:23:22;;;;;;;9.50;5.20;;;;;;;19.77;100.00;99519.80;105134;1271;59646;-79
2022/08/21 00:26:10;;;;;;;8.90;5.10;;;;;;;19.77;100.00;99525.90;105123;1271;61105;-80
2022/08/21 00:28:58;;;;;;;8.20;4.90;;;;;;;19.74;100.00;99528.58;104981;1271;74925;-80
2022/08/21 00:31:48;;;;;;;8.70;5.00;;;;;;;19.68;100.00;99527.18;105088;1271;68000;-78
2022/08/21 00:34:39;;;;;;;8.60;5.00;;;;;;;19.65;100.00;99527.33;105162;1271;74432;-81
2022/08/21 00:37:26;;;;;;;8.50;4.20;;;;;;;19.66;100.00;99528.28;105139;1271;60193;-78
2022/08/21 00:40:23;;;;;;;9.00;5.10;;;;;;;19.66;100.00;99530.79;105126;1271;60820;-78
2022/08/21 00:43:17;;;;;;;9.40;5.30;;;;;;;19.69;100.00;99528.27;105116;1271;71821;-77
2022/08/21 00:46:07;;;;;;;8.00;4.60;;;;;;;19.73;100.00;99518.98;104991;1271;67972;-77
2022/08/21 00:48:55;;;;;;;8.60;4.70;;;;;;;19.73;100.00;99516.04;105005;1271;73112;-79
2022/08/21 00:51:59;;;;;;;8.30;4.30;;;;;;;19.75;100.00;99517.13;105363;1271;59852;-76
2022/08/21 00:54:50;;;;;;;8.20;4.10;;;;;;;19.77;100.00;99516.73;105301;1271;61742;-78
2022/08/21 00:57:47;;;;;;;8.20;4.40;;;;;;;19.79;100.00;99517.55;105379;1271;71977;-81
2022/08/21 01:00:43;;;;;;;7.70;3.70;;;;;;;19.82;100.00;99515.10;105164;1271;67985;-80
2022/08/21 01:03:32;;;;;;;7.70;4.20;;;;;;;19.82;100.00;99516.27;105898;1271;73441;-78
2022/08/21 01:06:21;;;;;;;7.60;3.40;;;;;;;19.83;100.00;99520.10;105889;1271;61157;-81
2022/08/21 01:09:10;;;;;;;7.70;3.70;;;;;;;19.86;100.00;99519.75;105232;1271;61002;-80
2022/08/21 01:11:59;;;;;;;7.60;3.80;;;;;;;19.87;100.00;99517.02;104989;1271;72375;-79
2022/08/21 01:14:48;;;;;;;7.60;3.60;;;;;;;19.91;100.00;99516.65;105192;1271;68554;-81
2022/08/21 01:17:36;;;;;;;7.80;3.70;;;;;;;19.91;100.00;99512.83;105157;1271;70626;-81
2022/08/21 01:20:26;;;;;;;7.90;3.70;;;;;;;19.91;100.00;99502.55;105363;1271;59817;-80
2022/08/21 01:23:19;;;;;;;7.50;4.00;;;;;;;19.91;100.00;99504.77;105166;1271;60364;-79
2022/08/21 01:26:08;;;;;;;8.60;4.30;;;;;;;19.88;100.00;99503.48;105120;1271;73246;-80
2022/08/21 01:29:09;;;;;;;8.60;4.20;;;;;;;19.87;100.00;99505.77;105185;1271;69618;-80
2022/08/21 01:32:03;;;;;;;9.20;4.80;;;;;;;19.84;100.00;99506.90;105290;1271;73553;-81
2022/08/21 01:34:52;;;;;;;7.90;4.20;;;;;;;19.81;100.00;99507.37;105071;1271;60131;-79
2022/08/21 01:37:41;;;;;;;9.70;5.50;;;;;;;19.75;100.00;99505.55;105133;1271;61667;-81
2022/08/21 01:40:29;;;;;;;10.10;5.80;;;;;;;19.73;100.00;99502.01;105207;1271;74732;-79
2022/08/21 01:43:17;;;;;;;8.90;5.60;;;;;;;19.71;100.00;99496.87;105408;1271;68074;-78
2022/08/21 01:46:13;;;;;;;9.00;5.80;;;;;;;19.69;100.00;99496.44;105197;1271;71651;-78
2022/08/21 01:49:02;;;;;;;9.80;6.70;;;;;;;19.69;100.00;99498.63;105011;1271;60020;-79
2022/08/21 01:51:51;;;;;;;11.40;6.70;;;;;;;19.69;100.00;99498.96;105173;1271;60004;-79
2022/08/21 01:54:39;;;;;;;10.50;7.20;;;;;;;19.69;100.00;99497.89;105188;1271;73167;-80
2022/08/21 01:57:28;;;;;;;10.80;7.00;;;;;;;19.70;100.00;99496.98;105213;1271;68582;-79
2022/08/21 02:00:22;;;;;;;11.50;7.20;;;;;;;19.70;100.00;99497.23;104417;1271;1506744;-80
2022/08/21 02:03:10;;;;;;;10.80;7.20;;;;;;;19.67;100.00;99495.37;105401;1271;59788;-79
2022/08/21 02:05:58;;;;;;;12.20;7.60;;;;;;;19.66;100.00;99495.41;105205;1271;60650;-78
2022/08/21 02:08:47;;;;;;;11.70;7.90;;;;;;;19.66;100.00;99494.31;105227;1271;74669;-77
2022/08/21 02:11:36;;;;;;;12.10;7.70;;;;;;;19.65;100.00;99497.27;105003;1274;68612;-77
2022/08/21 02:14:25;;;;;;;11.00;7.50;;;;;;;19.64;100.00;99497.79;105074;1271;71549;-77
2022/08/21 02:17:19;;;;;;;13.60;8.30;;;;;;;19.62;100.00;99498.19;105055;1271;60017;-77
2022/08/21 02:20:10;;;;;;;13.00;8.00;;;;;;;19.61;100.00;99490.63;105182;1271;59630;-77
2022/08/21 02:23:00;;;;;;;14.30;8.30;;;;;;;19.61;100.00;99488.50;105194;1271;74223;-77
2022/08/21 02:25:48;;;;;;;12.20;7.70;;;;;;;19.60;100.00;99493.47;105153;1271;70090;-78
2022/08/21 02:28:37;;;;;;;11.10;7.60;;;;;;;19.56;100.00;99495.68;105132;1271;71880;-78
2022/08/21 02:31:25;;;;;;;11.30;7.30;;;;;;;19.51;100.00;99498.45;105131;1270;60302;-77
2022/08/21 02:34:13;;;;;;;11.70;7.10;;;;;;;19.49;100.00;99496.34;105105;1271;62286;-79
2022/08/21 02:37:01;;;;;;;10.70;7.00;;;;;;;19.50;100.00;99494.83;105355;1271;73138;-76
2022/08/21 02:39:49;;;;;;;10.90;7.10;;;;;;;19.51;100.00;99488.45;105385;1271;67735;-77
2022/08/21 02:42:38;;;;;;;10.90;7.30;;;;;;;19.52;100.00;99483.10;105132;1271;74211;-75
2022/08/21 02:45:28;;;;;;;12.40;7.50;;;;;;;19.53;100.00;99479.23;105292;1271;60660;-77
2022/08/21 02:48:21;;;;;;;10.40;7.20;;;;;;;19.53;100.00;99471.81;105139;1271;61016;-77
2022/08/21 02:51:14;;;;;;;11.60;7.10;;;;;;;19.57;100.00;99467.00;105114;1271;74481;-76
2022/08/21 02:54:02;;;;;;;10.70;6.90;;;;;;;19.59;100.00;99462.15;104979;1271;70039;-75
2022/08/21 02:56:51;;;;;;;12.70;7.30;;;;;;;19.61;100.00;99460.47;105258;1271;73066;-78
2022/08/21 02:59:40;;;;;;;11.30;7.20;;;;;;;19.59;100.00;99465.11;105337;1271;60261;-77
2022/08/21 03:02:28;;;;;;;12.20;7.50;;;;;;;19.56;100.00;99470.31;105176;1271;61301;-78
2022/08/21 03:05:17;;;;;;;11.90;7.60;;;;;;;19.54;100.00;99471.29;105111;1271;74643;-79
2022/08/21 03:08:11;;;;;;;10.60;7.10;;;;;;;19.55;100.00;99472.67;105111;1271;66821;-77
2022/08/21 03:11:03;;;;;;;12.60;7.40;;;;;;;19.58;100.00;99477.14;105379;1271;71953;-78
2022/08/21 03:13:52;;;;;;;12.10;7.60;;;;;;;19.58;100.00;99478.39;105314;1271;60174;-77
2022/08/21 03:16:41;;;;;;;11.60;7.10;;;;;;;19.60;100.00;99481.27;105089;1271;62112;-76
2022/08/21 03:19:30;;;;;;;12.20;7.40;;;;;;;19.60;100.00;99480.88;105094;1271;73248;-76
2022/08/21 03:22:17;;;;;;;11.60;7.70;;;;;;;19.60;100.00;99482.13;105221;1269;69605;-77
2022/08/21 03:25:06;;;;;;;13.30;7.60;;;;;;;19.61;100.00;99484.46;105150;1271;73501;-77
2022/08/21 03:28:00;;;;;;;11.80;7.20;;;;;;;19.64;100.00;99486.83;105069;1271;59750;-77
2022/08/21 03:30:51;;;;;;;11.60;7.30;;;;;;;19.66;100.00;99488.94;105020;1271;59626;-79
2022/08/21 03:33:39;;;;;;;10.30;6.10;;;;;;;19.68;100.00;99485.71;105324;1271;73212;-79
2022/08/21 03:36:27;;;;;;;10.10;6.30;;;;;;;19.69;100.00;99486.67;105078;1271;66889;-78
2022/08/21 03:39:16;;;;;;;11.60;6.60;;;;;;;19.70;100.00;99484.94;105131;1271;71407;-77
2022/08/21 03:42:06;;;;;;;10.10;6.40;;;;;;;19.71;100.00;99479.63;105095;1269;59770;-78
2022/08/21 03:44:53;;;;;;;10.90;5.90;;;;;;;19.71;100.00;99477.92;105166;1271;60912;-77
2022/08/21 03:47:52;;;;;;;10.30;5.60;;;;;;;19.72;100.00;99480.62;105570;1271;73744;-77
2022/08/21 03:50:44;;;;;;;10.80;6.20;;;;;;;19.74;100.00;99484.52;105136;1271;69773;-78
2022/08/21 03:53:32;;;;;;;9.80;5.90;;;;;;;19.74;100.00;99486.39;105131;1271;74403;-79
2022/08/21 03:56:20;;;;;;;10.20;5.70;;;;;;;19.75;100.00;99483.08;104962;1271;59650;-79
2022/08/21 03:59:09;;;;;;;10.00;5.70;;;;;;;19.77;100.00;99483.23;105146;1271;60709;-77
2022/08/21 04:02:01;;;;;;;10.10;6.00;;;;;;;19.77;100.00;99484.48;105103;1271;70927;-76
2022/08/21 04:04:49;;;;;;;11.20;6.20;;;;;;;19.77;100.00;99484.20;105092;1270;69595;-77
2022/08/21 04:07:37;;;;;;;10.80;6.30;;;;;;;19.76;100.00;99482.62;104935;1271;74543;-78
2022/08/21 04:10:28;;;;;;;13.10;6.30;;;;;;;19.77;100.00;99482.14;105158;1270;60231;-78
2022/08/21 04:13:15;;;;;;;12.80;7.10;;;;;;;19.78;100.00;99487.09;104953;1271;60962;-78
2022/08/21 04:16:04;;;;;;;12.10;6.40;;;;;;;19.79;100.00;99493.98;104968;1271;73263;-78
2022/08/21 04:18:53;;;;;;;10.70;6.10;;;;;;;19.80;100.00;99490.86;105302;1271;68326;-77
2022/08/21 04:21:41;;;;;;;9.90;6.00;;;;;;;19.82;100.00;99492.42;105340;1271;71433;-77
2022/08/21 04:24:30;;;;;;;11.60;6.30;;;;;;;19.83;100.00;99494.36;105170;1271;61291;-76
2022/08/21 04:27:19;;;;;;;10.80;6.30;;;;;;;19.83;100.00;99498.09;105143;1271;59674;-76
2022/08/21 04:30:09;;;;;;;12.00;6.20;;;;;;;19.86;100.00;99496.63;105293;1271;71852;-77
2022/08/21 04:32:58;;;;;;;10.10;6.20;;;;;;;19.90;100.00;99498.04;105509;1271;68075;-77
2022/08/21 04:35:47;;;;;;;9.80;5.80;;;;;;;19.90;100.00;99499.19;105338;1271;72638;-77
2022/08/21 04:38:35;;;;;;;11.00;6.20;;;;;;;19.93;100.00;99503.41;105297;1271;60853;-78
2022/08/21 04:41:25;;;;;;;14.30;6.50;;;;;;;19.93;100.00;99498.55;105058;1271;61012;-76
2022/08/21 04:44:15;;;;;;;10.20;5.70;;;;;;;19.93;100.00;99503.41;105269;1271;74835;-77
2022/08/21 04:47:03;;;;;;;11.60;6.10;;;;;;;19.94;100.00;99501.43;105148;1271;69380;-77
2022/08/21 04:49:52;;;;;;;13.70;5.80;;;;;;;19.95;100.00;99499.91;105139;1271;72943;-77
2022/08/21 04:52:40;;;;;;;14.40;6.70;;;;;;;19.93;100.00;99500.14;104920;1271;59948;-77
2022/08/21 04:55:28;;;;;;;10.50;6.10;;;;;;;19.95;100.00;99501.39;105362;1271;60423;-76
2022/08/21 04:58:20;;;;;;;12.70;6.70;;;;;;;19.96;100.00;99498.41;105344;1271;73284;-80
2022/08/21 05:01:15;;;;;;;12.20;6.70;;;;;;;19.97;100.00;99506.61;105474;1271;69390;-77
2022/08/21 05:04:05;;;;;;;11.90;6.60;;;;;;;20.01;100.00;99507.80;105405;1271;70507;-78
2022/08/21 05:07:00;;;;;;;9.90;5.90;;;;;;;20.02;100.00;99508.80;105482;1271;61188;-78
2022/08/21 05:09:48;;;;;;;11.00;6.60;;;;;;;20.01;100.00;99515.65;105559;1271;59727;-77
2022/08/21 05:12:36;;;;;;;11.70;6.40;;;;;;;20.01;100.00;99514.79;105543;1271;72794;-77
2022/08/21 05:15:25;;;;;;;9.80;6.20;;;;;;;20.03;100.00;99515.76;105316;1271;66494;-78
2022/08/21 05:18:13;;;;;;;10.10;5.80;;;;;;;20.07;100.00;99513.88;105194;1271;72968;-78
2022/08/21 05:21:02;;;;;;;11.40;6.10;;;;;;;20.11;100.00;99517.53;105198;1271;60085;-77
2022/08/21 05:23:50;;;;;;;13.20;6.10;;;;;;;20.16;100.00;99522.70;105214;1271;62044;-78
2022/08/21 05:26:39;;;;;;;9.80;5.30;;;;;;;20.23;100.00;99522.08;105184;1271;74093;-77
2022/08/21 05:29:33;;;;;;;10.60;6.50;;;;;;;20.32;100.00;99517.23;105124;1271;69678;-73
2022/08/21 05:32:21;;;;;;;9.20;5.20;;;;;;;20.39;100.00;99517.79;105236;1270;74446;-72
2022/08/21 05:35:09;;;;;;;8.30;4.70;;;;;;;20.44;100.00;99516.74;105232;1271;61259;-73
2022/08/21 05:37:58;;;;;;;9.60;4.70;;;;;;;20.48;100.00;99523.88;105152;1271;62225;-75
2022/08/21 05:40:46;;;;;;;8.10;4.50;;;;;;;20.50;100.00;99525.05;105139;1271;75355;-72
2022/08/21 05:43:35;;;;;;;9.60;5.20;;;;;;;20.48;100.00;99528.32;105197;1271;69697;-75
2022/08/21 05:46:24;;;;;;;10.10;4.50;;;;;;;20.43;100.00;99528.95;105409;1271;72871;-74
2022/08/21 05:49:12;;;;;;;7.70;4.40;;;;;;;20.39;100.00;99531.80;105202;1271;61096;-72
2022/08/21 05:52:01;;;;;;;8.60;4.90;;;;;;;20.32;100.00;99533.81;105094;1271;60363;-74
2022/08/21 05:54:50;;;;;;;8.80;4.80;;;;;;;20.24;100.00;99538.91;105111;1271;74737;-76
2022/08/21 05:57:40;;;;;;;19.90;16.00;;;;;;;20.19;100.00;99541.48;105129;1271;69112;-73
2022/08/21 06:00:29;;;;;;;8.70;5.30;;;;;;;20.16;100.00;99545.83;105174;1271;73713;-72
2022/08/21 06:03:27;;;;;;;8.70;5.00;;;;;;;20.13;100.00;99546.30;105204;1271;59741;-74
2022/08/21 06:06:15;;;;;;;8.30;4.90;;;;;;;20.10;100.00;99547.60;105363;1271;60422;-72
2022/08/21 06:09:05;;;;;;;9.10;5.10;;;;;;;20.07;100.00;99549.61;105164;1271;75080;-73
2022/08/21 06:11:53;;;;;;;8.50;4.90;;;;;;;20.06;100.00;99549.80;105222;1271;68546;-73
2022/08/21 06:14:41;;;;;;;8.20;4.40;;;;;;;20.05;100.00;99550.44;105128;1271;74268;-72
2022/08/21 06:17:30;;;;;;;8.00;4.40;;;;;;;20.02;100.00;99556.59;105153;1271;61707;-73
2022/08/21 06:20:19;;;;;;;7.20;3.70;;;;;;;19.97;100.00;99554.14;105167;1271;61667;-73
2022/08/21 06:23:07;;;;;;;7.70;4.30;;;;;;;19.94;100.00;99556.25;104992;1271;74729;-76
2022/08/21 06:25:56;;;;;;;7.80;4.10;;;;;;;19.91;100.00;99550.30;105226;1271;67930;-75
2022/08/21 06:28:44;;;;;;;10.00;5.80;;;;;;;19.90;100.00;99546.09;105137;1271;73219;-75
2022/08/21 06:31:32;;;;;;;7.50;3.80;;;;;;;19.88;100.00;99540.57;105116;1270;60227;-74
2022/08/21 06:34:21;;;;;;;7.70;4.20;;;;;;;19.85;100.00;99533.88;105161;1271;60227;-74
2022/08/21 06:37:09;;;;;;;8.60;3.80;;;;;;;19.85;100.00;99535.91;105138;1271;73430;-74
2022/08/21 06:41:06;;;;;;;7.40;3.90;;;;;;;19.83;100.00;99531.94;105457;1271;69825;-76
2022/08/21 06:44:17;;;;;;;7.80;4.00;;;;;;;19.89;100.00;99535.91;105148;1274;72872;-74
2022/08/21 06:47:05;;;;;;;8.20;4.30;;;;;;;19.98;100.00;99537.65;104867;1274;59579;-73
2022/08/21 06:49:53;;;;;;;9.80;5.80;;;;;;;20.11;100.00;99531.23;104844;1274;59553;-71
2022/08/21 06:52:41;;;;;;;9.40;4.30;;;;;;;20.22;100.00;99533.70;105038;1274;73767;-74
2022/08/21 06:55:29;;;;;;;7.70;3.80;;;;;;;20.33;100.00;99532.67;104844;1274;68876;-74
2022/08/21 06:58:17;;;;;;;7.30;3.90;;;;;;;20.39;99.94;99532.13;104873;1274;73116;-72
2022/08/21 07:01:05;;;;;;;8.00;4.00;;;;;;;20.47;99.86;99539.98;104810;1274;60047;-73
2022/08/21 07:03:54;;;;;;;7.10;3.60;;;;;;;20.52;99.11;99543.28;105233;1274;60264;-73
2022/08/21 07:06:41;;;;;;;7.30;3.50;;;;;;;20.55;98.43;99547.01;104959;1274;74690;-71
2022/08/21 07:09:29;;;;;;;7.50;3.90;;;;;;;20.55;98.50;99545.73;104954;1272;68123;-73
2022/08/21 07:12:19;;;;;;;7.90;3.60;;;;;;;20.58;98.19;99548.78;104936;1274;74023;-72
2022/08/21 07:15:08;;;;;;;7.10;3.30;;;;;;;20.60;97.62;99550.23;104875;1272;61742;-73
2022/08/21 07:17:59;;;;;;;6.80;3.40;;;;;;;20.62;97.37;99546.85;105290;1271;60359;-73
2022/08/21 07:20:47;;;;;;;13.10;6.70;;;;;;;20.65;98.00;99549.95;105248;1271;73559;-74
2022/08/21 07:23:40;;;;;;;7.20;3.70;;;;;;;20.70;97.97;99555.05;105536;1271;67802;-73
2022/08/21 07:26:30;;;;;;;8.10;3.70;;;;;;;20.68;97.42;99555.10;105027;1271;74452;-72
2022/08/21 07:29:18;;;;;;;7.10;3.50;;;;;;;20.64;96.98;99558.46;105127;1271;59759;-73
2022/08/21 07:32:08;;;;;;;7.50;3.40;;;;;;;20.63;97.22;99556.55;105055;1271;60451;-72
2022/08/21 07:34:58;;;;;;;8.00;3.80;;;;;;;20.64;96.89;99562.05;105228;1271;71587;-73
2022/08/21 07:37:48;;;;;;;7.20;3.40;;;;;;;20.61;96.87;99564.14;104974;1271;70752;-73
2022/08/21 07:40:36;;;;;;;7.30;3.50;;;;;;;20.57;97.12;99557.11;105250;1271;73422;-73
2022/08/21 07:43:25;;;;;;;7.40;3.40;;;;;;;20.54;97.27;99560.69;105207;1271;59642;-72
2022/08/21 07:46:15;;;;;;;7.40;3.70;;;;;;;20.51;97.12;99561.41;105501;1270;61046;-72
2022/08/21 07:49:03;;;;;;;7.30;3.40;;;;;;;20.47;97.02;99564.81;105081;1271;73200;-72
2022/08/21 07:51:51;;;;;;;9.10;4.40;;;;;;;20.43;97.21;99561.77;105231;1268;69419;-72
2022/08/21 07:54:39;;;;;;;7.90;3.70;;;;;;;20.39;97.34;99562.53;105148;1271;73453;-73
2022/08/21 07:57:27;;;;;;;8.70;3.80;;;;;;;20.33;97.16;99563.02;105158;1271;60407;-74
2022/08/21 08:00:20;;;;;;;7.60;3.70;;;;;;;20.27;97.73;99568.61;105168;1271;60796;-75
2022/08/21 08:03:08;;;;;;;7.40;3.70;;;;;;;20.22;97.94;99569.94;105466;1271;74769;-71
2022/08/21 08:05:58;;;;;;;8.70;4.00;;;;;;;20.19;98.85;99571.98;105410;1271;66658;-73
2022/08/21 08:08:47;;;;;;;7.80;3.30;;;;;;;20.18;99.31;99569.41;105180;1270;74510;-71
2022/08/21 08:11:39;;;;;;;8.20;3.60;;;;;;;20.16;99.11;99566.56;105184;1269;60414;-74
2022/08/21 08:14:28;;;;;;;8.40;3.50;;;;;;;20.14;99.26;99564.18;105056;1271;60995;-74
2022/08/21 08:17:21;;;;;;;8.50;3.40;;;;;;;20.14;99.61;99563.09;105440;1271;74057;-74
2022/08/21 08:20:12;;;;;;;8.90;3.50;;;;;;;20.12;99.24;99561.20;105340;1271;68796;-74
2022/08/21 08:23:00;;;;;;;7.40;3.20;;;;;;;20.10;99.55;99566.48;105122;1271;73665;-74
2022/08/21 08:25:49;;;;;;;10.00;3.50;;;;;;;20.11;99.61;99570.47;105229;1271;61161;-74
2022/08/21 08:28:37;;;;;;;10.00;3.80;;;;;;;20.15;99.85;99562.56;105235;1271;61006;-75
2022/08/21 08:31:25;;;;;;;9.50;3.50;;;;;;;20.24;99.93;99561.98;105225;1271;73258;-74
2022/08/21 08:34:13;;;;;;;9.50;3.50;;;;;;;20.34;99.85;99564.52;105171;1270;68001;-75
2022/08/21 08:37:13;;;;;;;8.20;3.40;;;;;;;20.53;99.21;99570.94;105195;1271;74369;-74
2022/08/21 08:40:02;;;;;;;9.70;3.30;;;;;;;20.72;98.87;99578.63;105165;1271;59679;-74
2022/08/21 08:42:52;;;;;;;8.90;4.00;;;;;;;20.91;98.06;99574.05;105182;1271;59506;-76
2022/08/21 08:45:47;;;;;;;9.00;3.40;;;;;;;21.09;96.90;99569.36;105196;1271;74081;-73
2022/08/21 08:49:03;;;;;;;10.40;3.90;;;;;;;21.28;95.51;99572.33;105257;1271;68525;-74
2022/08/21 08:52:00;;;;;;;9.40;4.00;;;;;;;21.42;93.99;99569.06;105286;1271;73348;-72
2022/08/21 08:55:14;;;;;;;8.20;3.80;;;;;;;21.45;93.52;99570.44;105022;1271;59787;-75
2022/08/21 08:58:03;;;;;;;8.80;3.30;;;;;;;21.48;93.47;99568.38;105145;1271;61465;-74
2022/08/21 09:00:54;;;;;;;7.90;3.30;;;;;;;21.49;93.24;99570.72;104931;1271;74511;-74
2022/08/21 09:03:44;;;;;;;8.10;2.90;;;;;;;21.44;92.29;99566.07;105202;1271;68419;-73
2022/08/21 09:06:55;;;;;;;9.30;3.10;;;;;;;21.39;92.34;99569.02;105377;1271;72801;-76
2022/08/21 09:10:12;;;;;;;7.80;3.00;;;;;;;21.31;92.62;99567.40;105089;1274;61612;-74
2022/08/21 09:13:18;;;;;;;8.70;3.30;;;;;;;21.15;92.78;99567.58;105579;1270;61822;-74
2022/08/21 09:16:49;;;;;;;8.40;3.50;;;;;;;21.05;93.18;99568.90;105370;1271;74745;-77
2022/08/21 09:19:53;;;;;;;7.50;3.00;;;;;;;21.00;93.81;99569.86;105308;1270;68485;-75
2022/08/21 09:23:16;;;;;;;6.90;3.10;;;;;;;21.14;93.58;99574.28;105107;1271;74213;-78
2022/08/21 09:26:17;;;;;;;8.30;2.80;;;;;;;21.33;92.98;99573.23;105289;1271;59810;-73
2022/08/21 09:29:09;;;;;;;8.20;3.20;;;;;;;21.54;92.56;99574.95;105278;1271;61005;-74
2022/08/21 09:31:57;;;;;;;8.80;3.50;;;;;;;21.69;91.87;99572.86;105213;1271;74321;-76
2022/08/21 09:35:07;;;;;;;7.40;3.00;;;;;;;21.78;90.78;99570.13;105125;1271;69388;-77
2022/08/21 09:38:07;;;;;;;9.10;3.30;;;;;;;21.72;89.96;99576.45;105349;1271;73429;-76
2022/08/21 09:41:01;;;;;;;7.90;3.10;;;;;;;21.63;90.11;99581.24;105247;1271;60088;-76
2022/08/21 09:43:54;;;;;;;8.70;3.40;;;;;;;21.56;90.43;99576.64;105178;1271;60394;-74
2022/08/21 09:46:52;;;;;;;7.40;3.00;;;;;;;21.47;90.10;99575.12;105378;1271;73054;-75
2022/08/21 09:49:43;;;;;;;7.90;3.20;;;;;;;21.40;90.43;99573.64;105122;1271;68374;-74
2022/08/21 09:52:31;;;;;;;7.00;2.80;;;;;;;21.29;90.81;99579.91;105199;1271;74371;-73
2022/08/21 09:58:54;;;;;;;7.90;3.40;;;;;;;21.04;91.97;99590.95;105236;1271;60473;-74
2022/08/21 10:01:49;;;;;;;8.20;2.90;;;;;;;20.91;92.27;99596.91;105291;1271;74658;-80
2022/08/21 10:04:37;;;;;;;7.10;2.90;;;;;;;20.77;92.99;99600.04;105312;1271;68022;-79
2022/08/21 10:07:30;;;;;;;8.70;3.00;;;;;;;20.62;93.26;99594.42;105360;1271;74517;-78
2022/08/21 10:10:28;;;;;;;7.70;3.10;;;;;;;20.46;93.65;99581.36;105560;1271;60518;-79
2022/08/21 10:14:13;;;;;;;8.40;2.80;;;;;;;20.34;94.78;99582.18;105136;1271;61990;-80
2022/08/21 10:17:49;;;;;;;7.60;2.80;;;;;;;20.19;95.71;99604.17;105761;1271;71036;-78
2022/08/21 10:21:05;;;;;;;8.40;2.90;;;;;;;20.09;95.85;99605.67;105120;1271;66819;-79
2022/08/21 10:24:18;;;;;;;8.40;3.20;;;;;;;20.03;96.82;99593.20;105250;1271;71696;-77
2022/08/21 10:27:50;;;;;;;7.10;2.60;;;;;;;19.99;96.08;99588.84;105463;1271;60695;-81
2022/08/21 10:31:02;;;;;;;8.60;2.90;;;;;;;20.01;93.94;99580.48;105106;1273;62133;-78
2022/08/21 10:34:05;;;;;;;7.10;2.60;;;;;;;20.05;93.11;99583.27;105250;1271;73786;-80
2022/08/21 10:37:31;;;;;;;8.00;2.60;;;;;;;20.17;93.75;99587.52;105316;1271;69675;-78
2022/08/21 10:40:49;;;;;;;7.80;2.50;;;;;;;20.32;93.62;99590.72;105701;1271;74226;-78
2022/08/21 10:43:50;;;;;;;8.30;2.40;;;;;;;20.31;92.14;99595.84;106079;1271;60150;-81
2022/08/21 10:47:12;;;;;;;8.40;2.30;;;;;;;20.31;92.91;99593.83;106762;1270;59540;-81
2022/08/21 10:50:50;;;;;;;6.50;2.40;;;;;;;20.31;93.14;99597.16;106556;1271;71524;-80
2022/08/21 10:53:49;;;;;;;6.80;2.20;;;;;;;20.20;93.62;99600.60;106050;1271;68161;-77
2022/08/21 10:56:41;;;;;;;7.00;2.20;;;;;;;20.12;94.11;99605.63;105918;1271;72762;-78
2022/08/21 10:59:49;;;;;;;8.30;2.70;;;;;;;20.03;94.60;99606.03;105647;1271;60244;-81
2022/08/21 11:02:49;;;;;;;7.10;2.30;;;;;;;19.99;95.18;99611.73;106115;1271;60562;-78
2022/08/21 11:05:54;;;;;;;7.20;2.80;;;;;;;19.98;96.19;99607.92;106443;1269;73520;-79
2022/08/21 11:08:51;;;;;;;6.90;2.60;;;;;;;20.00;96.32;99608.67;106312;1271;66811;-80
2022/08/21 11:11:55;;;;;;;7.30;2.70;;;;;;;20.00;96.15;99612.29;106180;1271;73454;-80
2022/08/21 11:15:07;;;;;;;7.70;2.70;;;;;;;20.02;96.54;99613.48;105591;1270;61282;-79
2022/08/21 11:18:50;;;;;;;8.00;2.60;;;;;;;20.07;96.05;99616.50;106175;1270;61805;-79
2022/08/21 11:22:11;;;;;;;7.40;2.40;;;;;;;20.11;96.05;99612.23;106198;1271;74569;-79
2022/08/21 11:25:08;;;;;;;6.40;1.90;;;;;;;20.20;94.64;99614.89;106243;1271;66500;-80
2022/08/21 11:28:24;;;;;;;10.30;2.80;;;;;;;20.26;94.10;99614.83;106849;1271;73483;-83
2022/08/21 11:31:54;;;;;;;8.50;2.60;;;;;;;20.28;94.28;99622.48;106343;1271;59710;-79
2022/08/21 11:35:07;;;;;;;6.20;2.10;;;;;;;20.21;94.11;99624.59;106021;1277;59748;-81
2022/08/21 11:38:17;;;;;;;8.30;2.30;;;;;;;20.12;93.70;99637.37;106395;1278;71654;-79
2022/08/21 11:41:18;;;;;;;9.70;2.60;;;;;;;20.04;93.32;99642.41;106157;1279;66911;-79
2022/08/21 11:44:36;;;;;;;7.90;2.20;;;;;;;19.98;93.82;99650.97;106481;1278;72883;-80
2022/08/21 11:47:40;;;;;;;8.40;2.40;;;;;;;19.92;93.34;99648.60;106279;1280;59381;-81
2022/08/21 11:50:31;;;;;;;6.70;2.00;;;;;;;19.93;94.30;99649.42;106107;1279;62086;-79
2022/08/21 11:53:31;;;;;;;8.70;1.80;;;;;;;19.88;94.27;99650.54;106496;1279;71989;-78
2022/08/21 11:56:48;;;;;;;8.70;2.20;;;;;;;19.85;95.15;99649.67;106413;1278;66666;-79
2022/08/21 12:00:09;;;;;;;8.40;2.20;;;;;;;19.83;95.11;99648.31;105728;1278;72753;-80
2022/08/21 12:03:31;;;;;;;6.80;2.20;;;;;;;19.87;95.33;99650.81;105879;1277;59552;-81
2022/08/21 12:06:45;;;;;;;6.90;2.50;;;;;;;20.02;94.64;99642.55;105911;1277;60948;-81
2022/08/21 12:09:36;;;;;;;9.50;2.50;;;;;;;20.07;94.41;99646.17;106831;1278;71919;-79
2022/08/21 12:12:34;;;;;;;7.60;2.60;;;;;;;20.14;94.35;99647.45;107547;1271;66985;-80
2022/08/21 12:15:22;;;;;;;7.50;2.20;;;;;;;20.29;94.44;99647.02;107136;1273;72633;-78
2022/08/21 12:18:30;;;;;;;7.80;1.90;;;;;;;20.40;93.27;99645.64;107708;1271;58332;-80
2022/08/21 12:21:50;;;;;;;8.30;2.30;;;;;;;20.46;92.68;99644.02;107935;1271;61424;-79
2022/08/21 12:24:47;;;;;;;7.00;1.90;;;;;;;20.54;92.26;99642.26;107749;1271;73705;-79
2022/08/21 12:27:50;;;;;;;8.80;2.10;;;;;;;20.69;91.84;99642.20;107427;1271;66833;-80
2022/08/21 12:30:44;;;;;;;7.80;2.20;;;;;;;20.71;90.81;99644.82;107305;1270;73535;-80
2022/08/21 12:33:40;;;;;;;8.00;1.90;;;;;;;20.69;90.41;99643.13;107327;1271;59759;-81
2022/08/21 12:37:15;;;;;;;9.50;2.20;;;;;;;20.62;89.93;99642.61;107323;1271;59391;-83
2022/08/21 12:40:13;;;;;;;6.80;1.80;;;;;;;20.55;89.28;99648.17;107176;1269;72933;-79
2022/08/21 12:43:03;;;;;;;6.90;1.70;;;;;;;20.45;87.32;99650.48;107006;1271;66790;-80
2022/08/21 12:45:52;;;;;;;6.20;1.80;;;;;;;20.31;87.65;99657.60;107638;1271;71583;-80
2022/08/21 12:48:57;;;;;;;5.90;1.50;;;;;;;20.17;87.83;99656.34;107685;1270;59607;-80
2022/08/21 12:52:30;;;;;;;7.10;1.70;;;;;;;19.97;88.66;99664.73;107551;1270;59780;-80
2022/08/21 12:55:33;;;;;;;7.60;2.50;;;;;;;19.79;90.30;99667.81;107687;1271;71996;-79
2022/08/21 12:58:24;;;;;;;7.00;1.90;;;;;;;19.69;90.82;99669.30;107358;1270;66718;-79
2022/08/21 13:01:51;;;;;;;6.90;1.80;;;;;;;19.60;92.12;99668.73;107682;1271;72158;-80
2022/08/21 13:04:41;;;;;;;6.30;1.70;;;;;;;19.46;93.19;99666.93;106962;1279;59702;-80
2022/08/21 13:07:34;;;;;;;8.10;2.30;;;;;;;19.32;93.32;99677.12;106042;1279;61932;-78
2022/08/21 13:10:28;;;;;;;9.90;2.50;;;;;;;19.21;94.48;99682.90;105858;1279;71686;-77
2022/08/21 13:13:27;;;;;;;7.10;2.10;;;;;;;19.18;95.45;99682.59;105726;1279;69977;-78
2022/08/21 13:16:29;;;;;;;8.50;2.20;;;;;;;19.14;95.87;99685.70;106479;1279;72711;-78
2022/08/21 13:19:20;;;;;;;8.50;2.10;;;;;;;19.10;95.81;99687.63;105740;1279;60825;-78
2022/08/21 13:22:15;;;;;;;9.40;2.50;;;;;;;19.07;96.54;99688.94;105737;1279;60330;-80
2022/08/21 13:25:30;;;;;;;7.80;2.20;;;;;;;19.06;96.43;99691.55;106020;1279;71873;-79
2022/08/21 13:28:18;;;;;;;10.70;2.60;;;;;;;19.09;96.09;99693.03;106287;1279;66790;-79
2022/08/21 13:31:10;;;;;;;8.60;2.10;;;;;;;19.07;96.23;99695.96;106092;1278;72970;-80